QTR7L OMDB-OTHH
Flight info
| Callsign | QTR7L |
|---|---|
| Flight time | 0h 45m |
| Altitude | 22000 |
| Route | NABIX P699 OXARI M430 TOSNA |
| Aircraft | B77W/H-SDE1E2E3FGHIJ2J3J4J5M1RWXY/LB1D1 |
Departure
| Time | 2026-05-04 14:13 |
|---|---|
| Airport | Dubai International Airport (OMDB) |
Arrival
| Time | 2026-05-04 14:58 |
|---|---|
| Airport | Hamad International Airport (OTHH) |
| Time | Latitude | Longitude | Altitude | Speed | Heading |
|---|---|---|---|---|---|
| 2026-05-04 13:17 | 25.25548 | 55.34740 | 26 ft | 0 kts | 301° |
| 2026-05-04 13:49 | 25.25547 | 55.34742 | 26 ft | 2 kts | 301° |
| 2026-05-04 13:50 | 25.25533 | 55.34767 | 32 ft | 4 kts | 301° |
| 2026-05-04 13:50 | 25.25521 | 55.34788 | 32 ft | 2 kts | 302° |
| 2026-05-04 13:50 | 25.25505 | 55.34809 | 32 ft | 4 kts | 331° |
| 2026-05-04 13:50 | 25.25480 | 55.34817 | 32 ft | 4 kts | 1° |
| 2026-05-04 13:51 | 25.25453 | 55.34815 | 32 ft | 4 kts | 1° |
| 2026-05-04 13:51 | 25.25430 | 55.34815 | 32 ft | 4 kts | 357° |
| 2026-05-04 13:51 | 25.25411 | 55.34816 | 32 ft | 0 kts | 357° |
| 2026-05-04 13:57 | 25.25418 | 55.34816 | 30 ft | 3 kts | 358° |
| 2026-05-04 13:57 | 25.25454 | 55.34819 | 30 ft | 6 kts | 7° |
| 2026-05-04 13:58 | 25.25560 | 55.34867 | 30 ft | 6 kts | 30° |
| 2026-05-04 13:58 | 25.25628 | 55.34912 | 29 ft | 7 kts | 31° |
| 2026-05-04 13:58 | 25.25678 | 55.34945 | 30 ft | 9 kts | 31° |
| 2026-05-04 13:59 | 25.25728 | 55.34980 | 31 ft | 9 kts | 32° |
| 2026-05-04 13:59 | 25.25779 | 55.35014 | 30 ft | 9 kts | 31° |
| 2026-05-04 13:59 | 25.25882 | 55.35083 | 30 ft | 9 kts | 31° |
| 2026-05-04 14:00 | 25.25933 | 55.35117 | 28 ft | 9 kts | 31° |
| 2026-05-04 14:00 | 25.26035 | 55.35185 | 26 ft | 9 kts | 33° |
| 2026-05-04 14:00 | 25.26086 | 55.35220 | 26 ft | 9 kts | 32° |
| 2026-05-04 14:01 | 25.26137 | 55.35255 | 27 ft | 9 kts | 31° |
| 2026-05-04 14:01 | 25.26171 | 55.35278 | 28 ft | 2 kts | 31° |
| 2026-05-04 14:01 | 25.26175 | 55.35280 | 28 ft | 0 kts | 31° |
| 2026-05-04 14:05 | 25.26176 | 55.35281 | 28 ft | 2 kts | 31° |
| 2026-05-04 14:05 | 25.26231 | 55.35318 | 29 ft | 15 kts | 31° |
| 2026-05-04 14:06 | 25.26317 | 55.35377 | 30 ft | 15 kts | 32° |
| 2026-05-04 14:06 | 25.26390 | 55.35425 | 28 ft | 10 kts | 31° |
| 2026-05-04 14:06 | 25.26426 | 55.35482 | 27 ft | 9 kts | 97° |
| 2026-05-04 14:06 | 25.26403 | 55.35545 | 27 ft | 9 kts | 119° |
| 2026-05-04 14:07 | 25.26330 | 55.35675 | 26 ft | 27 kts | 122° |
| 2026-05-04 14:07 | 25.26230 | 55.35851 | 27 ft | 27 kts | 122° |
| 2026-05-04 14:07 | 25.26133 | 55.36022 | 27 ft | 27 kts | 122° |
| 2026-05-04 14:07 | 25.26037 | 55.36195 | 27 ft | 27 kts | 121° |
| 2026-05-04 14:08 | 25.25939 | 55.36369 | 28 ft | 27 kts | 122° |
| 2026-05-04 14:08 | 25.25842 | 55.36543 | 28 ft | 27 kts | 122° |
| 2026-05-04 14:08 | 25.25745 | 55.36716 | 27 ft | 27 kts | 121° |
| 2026-05-04 14:08 | 25.25648 | 55.36889 | 27 ft | 27 kts | 122° |
| 2026-05-04 14:09 | 25.25453 | 55.37234 | 27 ft | 27 kts | 121° |
| 2026-05-04 14:09 | 25.25356 | 55.37408 | 28 ft | 27 kts | 122° |
| 2026-05-04 14:10 | 25.25161 | 55.37753 | 28 ft | 27 kts | 122° |
| 2026-05-04 14:10 | 25.25063 | 55.37927 | 27 ft | 27 kts | 121° |
| 2026-05-04 14:10 | 25.25011 | 55.38017 | 27 ft | 6 kts | 124° |
| 2026-05-04 14:10 | 25.24986 | 55.38060 | 27 ft | 7 kts | 123° |
| 2026-05-04 14:11 | 25.24942 | 55.38107 | 27 ft | 13 kts | 159° |
| 2026-05-04 14:11 | 25.24825 | 55.38063 | 30 ft | 7 kts | 212° |
| 2026-05-04 14:11 | 25.24818 | 55.38012 | 30 ft | 7 kts | 287° |
| 2026-05-04 14:12 | 25.24866 | 55.37921 | 30 ft | 29 kts | 302° |
| 2026-05-04 14:12 | 25.25099 | 55.37497 | 32 ft | 102 kts | 302° |
| 2026-05-04 14:12 | 25.26213 | 55.35488 | 518 ft | 171 kts | 300° |
| 2026-05-04 14:13 | 25.26820 | 55.34386 | 1284 ft | 170 kts | 301° |
| 2026-05-04 14:13 | 25.27463 | 55.33229 | 1831 ft | 182 kts | 301° |
| 2026-05-04 14:13 | 25.28130 | 55.32025 | 2275 ft | 193 kts | 302° |
| 2026-05-04 14:13 | 25.28872 | 55.30693 | 2582 ft | 215 kts | 300° |
| 2026-05-04 14:14 | 25.29269 | 55.29015 | 2693 ft | 245 kts | 265° |
| 2026-05-04 14:14 | 25.28696 | 55.25066 | 3623 ft | 271 kts | 266° |
| 2026-05-04 14:14 | 25.28489 | 55.22949 | 4393 ft | 277 kts | 266° |
| 2026-05-04 14:15 | 25.28075 | 55.18712 | 6001 ft | 282 kts | 266° |
| 2026-05-04 14:15 | 25.27637 | 55.14377 | 7583 ft | 285 kts | 266° |
| 2026-05-04 14:16 | 25.27186 | 55.10005 | 9205 ft | 288 kts | 266° |
| 2026-05-04 14:16 | 25.26955 | 55.07803 | 9957 ft | 290 kts | 266° |
| 2026-05-04 14:17 | 25.26487 | 55.03322 | 11415 ft | 298 kts | 266° |
| 2026-05-04 14:17 | 25.26246 | 55.01019 | 12067 ft | 310 kts | 266° |
| 2026-05-04 14:17 | 25.25723 | 54.95995 | 12634 ft | 357 kts | 265° |
| 2026-05-04 14:18 | 25.25429 | 54.93220 | 13302 ft | 368 kts | 265° |
| 2026-05-04 14:18 | 25.24948 | 54.87528 | 14875 ft | 374 kts | 271° |
| 2026-05-04 14:19 | 25.25043 | 54.81757 | 16554 ft | 379 kts | 273° |
| 2026-05-04 14:19 | 25.25114 | 54.78830 | 17371 ft | 383 kts | 273° |
| 2026-05-04 14:19 | 25.25182 | 54.75877 | 18174 ft | 387 kts | 272° |
| 2026-05-04 14:19 | 25.25244 | 54.72888 | 18912 ft | 391 kts | 272° |
| 2026-05-04 14:20 | 25.25300 | 54.69875 | 19665 ft | 394 kts | 272° |
| 2026-05-04 14:20 | 25.25350 | 54.66843 | 20419 ft | 397 kts | 271° |
| 2026-05-04 14:20 | 25.25397 | 54.63778 | 21135 ft | 402 kts | 271° |
| 2026-05-04 14:21 | 25.25489 | 54.57562 | 21638 ft | 406 kts | 271° |
| 2026-05-04 14:21 | 25.25533 | 54.54449 | 21682 ft | 405 kts | 271° |
| 2026-05-04 14:21 | 25.25577 | 54.51336 | 21722 ft | 406 kts | 271° |
| 2026-05-04 14:21 | 25.25620 | 54.48215 | 21732 ft | 408 kts | 271° |
| 2026-05-04 14:22 | 25.25663 | 54.45081 | 21742 ft | 408 kts | 271° |
| 2026-05-04 14:22 | 25.25706 | 54.41939 | 21748 ft | 409 kts | 271° |
| 2026-05-04 14:22 | 25.25747 | 54.38796 | 21752 ft | 409 kts | 271° |
| 2026-05-04 14:22 | 25.25788 | 54.35656 | 21748 ft | 409 kts | 271° |
| 2026-05-04 14:23 | 25.25868 | 54.29378 | 21738 ft | 408 kts | 271° |
| 2026-05-04 14:23 | 25.25906 | 54.26248 | 21738 ft | 407 kts | 271° |
| 2026-05-04 14:23 | 25.25944 | 54.23118 | 21737 ft | 406 kts | 271° |
| 2026-05-04 14:24 | 25.25981 | 54.19998 | 21745 ft | 406 kts | 271° |
| 2026-05-04 14:24 | 25.26017 | 54.16927 | 21738 ft | 405 kts | 271° |
| 2026-05-04 14:24 | 25.26053 | 54.13818 | 21740 ft | 405 kts | 271° |
| 2026-05-04 14:24 | 25.26088 | 54.10714 | 21737 ft | 405 kts | 271° |
| 2026-05-04 14:25 | 25.26123 | 54.07601 | 21742 ft | 404 kts | 271° |
| 2026-05-04 14:25 | 25.26189 | 54.01388 | 21746 ft | 404 kts | 271° |
| 2026-05-04 14:25 | 25.26221 | 53.98286 | 21742 ft | 405 kts | 271° |
| 2026-05-04 14:26 | 25.26253 | 53.95181 | 21750 ft | 405 kts | 271° |
| 2026-05-04 14:26 | 25.26285 | 53.92066 | 21745 ft | 405 kts | 270° |
| 2026-05-04 14:26 | 25.26315 | 53.88947 | 21744 ft | 406 kts | 270° |
| 2026-05-04 14:26 | 25.26345 | 53.85832 | 21743 ft | 406 kts | 270° |
| 2026-05-04 14:27 | 25.26375 | 53.82712 | 21742 ft | 406 kts | 270° |
| 2026-05-04 14:27 | 25.26403 | 53.79591 | 21749 ft | 407 kts | 270° |
| 2026-05-04 14:27 | 25.26432 | 53.76464 | 21742 ft | 407 kts | 270° |
| 2026-05-04 14:27 | 25.26459 | 53.73346 | 21743 ft | 407 kts | 270° |
| 2026-05-04 14:28 | 25.26486 | 53.70207 | 21742 ft | 407 kts | 270° |
| 2026-05-04 14:28 | 25.26512 | 53.67077 | 21741 ft | 407 kts | 270° |
| 2026-05-04 14:28 | 25.26538 | 53.63942 | 21746 ft | 407 kts | 270° |
| 2026-05-04 14:28 | 25.26563 | 53.60815 | 21738 ft | 407 kts | 270° |
| 2026-05-04 14:29 | 25.26610 | 53.54555 | 21755 ft | 407 kts | 270° |
| 2026-05-04 14:29 | 25.26655 | 53.48310 | 21745 ft | 407 kts | 270° |
| 2026-05-04 14:30 | 25.26677 | 53.45185 | 21745 ft | 406 kts | 270° |
| 2026-05-04 14:30 | 25.26698 | 53.42067 | 21746 ft | 406 kts | 270° |
| 2026-05-04 14:30 | 25.26738 | 53.35844 | 21743 ft | 405 kts | 270° |
| 2026-05-04 14:31 | 25.26756 | 53.32737 | 21751 ft | 405 kts | 270° |
| 2026-05-04 14:31 | 25.26792 | 53.26516 | 21747 ft | 404 kts | 270° |
| 2026-05-04 14:32 | 25.26825 | 53.20301 | 21746 ft | 405 kts | 270° |
| 2026-05-04 14:32 | 25.26841 | 53.17196 | 21749 ft | 405 kts | 270° |
| 2026-05-04 14:32 | 25.26856 | 53.14083 | 21749 ft | 405 kts | 270° |
| 2026-05-04 14:32 | 25.26870 | 53.10969 | 21748 ft | 405 kts | 270° |
| 2026-05-04 14:33 | 25.26884 | 53.07855 | 21751 ft | 406 kts | 270° |
| 2026-05-04 14:33 | 25.26897 | 53.04740 | 21751 ft | 406 kts | 270° |
| 2026-05-04 14:33 | 25.26909 | 53.01625 | 21750 ft | 406 kts | 270° |
| 2026-05-04 14:33 | 25.26921 | 52.98504 | 21751 ft | 406 kts | 270° |
| 2026-05-04 14:34 | 25.26932 | 52.95385 | 21750 ft | 406 kts | 270° |
| 2026-05-04 14:34 | 25.26942 | 52.92307 | 21750 ft | 406 kts | 270° |
| 2026-05-04 14:34 | 25.26952 | 52.89189 | 21751 ft | 406 kts | 270° |
| 2026-05-04 14:34 | 25.26961 | 52.86068 | 21751 ft | 406 kts | 270° |
| 2026-05-04 14:35 | 25.26970 | 52.82945 | 21751 ft | 406 kts | 270° |
| 2026-05-04 14:35 | 25.26977 | 52.79828 | 21751 ft | 406 kts | 270° |
| 2026-05-04 14:35 | 25.26985 | 52.76703 | 21749 ft | 406 kts | 270° |
| 2026-05-04 14:35 | 25.26992 | 52.73589 | 21746 ft | 406 kts | 270° |
| 2026-05-04 14:36 | 25.26998 | 52.70473 | 21756 ft | 406 kts | 270° |
| 2026-05-04 14:36 | 25.27249 | 52.67372 | 21746 ft | 406 kts | 283° |
| 2026-05-04 14:36 | 25.28120 | 52.64410 | 21759 ft | 406 kts | 289° |
| 2026-05-04 14:36 | 25.29057 | 52.61471 | 21758 ft | 405 kts | 287° |
| 2026-05-04 14:37 | 25.29922 | 52.58510 | 21754 ft | 405 kts | 286° |
| 2026-05-04 14:37 | 25.30786 | 52.55550 | 21750 ft | 404 kts | 290° |
| 2026-05-04 14:37 | 25.31991 | 52.52737 | 21763 ft | 405 kts | 297° |
| 2026-05-04 14:37 | 25.33425 | 52.50051 | 21755 ft | 406 kts | 300° |
| 2026-05-04 14:38 | 25.34886 | 52.47377 | 21750 ft | 407 kts | 299° |
| 2026-05-04 14:38 | 25.36300 | 52.44669 | 21752 ft | 407 kts | 298° |
| 2026-05-04 14:38 | 25.37668 | 52.41959 | 21752 ft | 407 kts | 297° |
| 2026-05-04 14:38 | 25.39035 | 52.39220 | 21752 ft | 408 kts | 297° |
| 2026-05-04 14:39 | 25.40408 | 52.36471 | 21756 ft | 408 kts | 297° |
| 2026-05-04 14:39 | 25.41784 | 52.33720 | 21756 ft | 408 kts | 297° |
| 2026-05-04 14:39 | 25.43137 | 52.31022 | 21744 ft | 395 kts | 297° |
| 2026-05-04 14:40 | 25.45731 | 52.25840 | 21244 ft | 381 kts | 297° |
| 2026-05-04 14:40 | 25.47007 | 52.23287 | 20818 ft | 378 kts | 297° |
| 2026-05-04 14:40 | 25.48274 | 52.20750 | 20380 ft | 375 kts | 297° |
| 2026-05-04 14:40 | 25.49533 | 52.18226 | 19939 ft | 373 kts | 297° |
| 2026-05-04 14:41 | 25.50784 | 52.15720 | 19509 ft | 371 kts | 297° |
| 2026-05-04 14:41 | 25.52026 | 52.13229 | 19068 ft | 369 kts | 297° |
| 2026-05-04 14:41 | 25.54501 | 52.08262 | 18152 ft | 368 kts | 297° |
| 2026-05-04 14:42 | 25.56966 | 52.03310 | 17186 ft | 366 kts | 297° |
| 2026-05-04 14:42 | 25.58190 | 52.00850 | 16723 ft | 363 kts | 297° |
| 2026-05-04 14:42 | 25.59348 | 51.98398 | 16373 ft | 352 kts | 290° |
| 2026-05-04 14:43 | 25.59826 | 51.95785 | 16043 ft | 345 kts | 270° |
| 2026-05-04 14:43 | 25.59451 | 51.93179 | 15652 ft | 343 kts | 252° |
| 2026-05-04 14:43 | 25.58313 | 51.90859 | 15147 ft | 347 kts | 231° |
| 2026-05-04 14:43 | 25.56462 | 51.89133 | 14641 ft | 353 kts | 213° |
| 2026-05-04 14:44 | 25.54187 | 51.88103 | 14176 ft | 356 kts | 194° |
| 2026-05-04 14:44 | 25.51744 | 51.87673 | 13683 ft | 356 kts | 190° |
| 2026-05-04 14:44 | 25.49282 | 51.87324 | 13197 ft | 357 kts | 189° |
| 2026-05-04 14:44 | 25.46822 | 51.86988 | 12777 ft | 355 kts | 189° |
| 2026-05-04 14:45 | 25.44375 | 51.86646 | 12383 ft | 353 kts | 190° |
| 2026-05-04 14:45 | 25.41943 | 51.86297 | 11975 ft | 351 kts | 190° |
| 2026-05-04 14:45 | 25.39525 | 51.85940 | 11553 ft | 351 kts | 190° |
| 2026-05-04 14:45 | 25.37112 | 51.85578 | 11150 ft | 349 kts | 191° |
| 2026-05-04 14:46 | 25.34762 | 51.85223 | 10647 ft | 341 kts | 191° |
| 2026-05-04 14:46 | 25.32407 | 51.84864 | 9852 ft | 342 kts | 191° |
| 2026-05-04 14:46 | 25.30048 | 51.84503 | 9008 ft | 343 kts | 191° |
| 2026-05-04 14:46 | 25.27679 | 51.84139 | 8307 ft | 344 kts | 191° |
| 2026-05-04 14:47 | 25.25331 | 51.83780 | 8120 ft | 336 kts | 191° |
| 2026-05-04 14:47 | 25.23055 | 51.83434 | 8030 ft | 324 kts | 191° |
| 2026-05-04 14:47 | 25.20858 | 51.83099 | 7919 ft | 314 kts | 191° |
| 2026-05-04 14:47 | 25.18730 | 51.82774 | 7706 ft | 309 kts | 191° |
| 2026-05-04 14:48 | 25.16706 | 51.82463 | 7484 ft | 305 kts | 191° |
| 2026-05-04 14:48 | 25.14617 | 51.82143 | 7240 ft | 301 kts | 191° |
| 2026-05-04 14:48 | 25.12550 | 51.81850 | 6993 ft | 298 kts | 188° |
| 2026-05-04 14:48 | 25.10499 | 51.81632 | 6752 ft | 294 kts | 188° |
| 2026-05-04 14:49 | 25.08474 | 51.81431 | 6517 ft | 288 kts | 187° |
| 2026-05-04 14:49 | 25.06526 | 51.81246 | 6135 ft | 276 kts | 187° |
| 2026-05-04 14:49 | 25.04624 | 51.81068 | 5577 ft | 276 kts | 187° |
| 2026-05-04 14:49 | 25.02699 | 51.80882 | 5235 ft | 276 kts | 187° |
| 2026-05-04 14:50 | 25.01004 | 51.80712 | 4973 ft | 268 kts | 188° |
| 2026-05-04 14:50 | 24.99219 | 51.80209 | 4422 ft | 265 kts | 210° |
| 2026-05-04 14:50 | 24.97752 | 51.79025 | 4074 ft | 259 kts | 229° |
| 2026-05-04 14:50 | 24.96535 | 51.77606 | 3965 ft | 252 kts | 232° |
| 2026-05-04 14:51 | 24.95585 | 51.76007 | 3816 ft | 249 kts | 256° |
| 2026-05-04 14:51 | 24.95463 | 51.74154 | 3706 ft | 242 kts | 289° |
| 2026-05-04 14:51 | 24.96242 | 51.72573 | 3596 ft | 234 kts | 320° |
| 2026-05-04 14:51 | 24.97640 | 51.71752 | 3490 ft | 229 kts | 352° |
| 2026-05-04 14:52 | 24.99213 | 51.71877 | 3372 ft | 226 kts | 11° |
| 2026-05-04 14:52 | 25.00759 | 51.72090 | 3257 ft | 225 kts | 359° |
| 2026-05-04 14:52 | 25.02325 | 51.71962 | 3163 ft | 226 kts | 353° |
| 2026-05-04 14:52 | 25.03886 | 51.71680 | 3033 ft | 228 kts | 348° |
| 2026-05-04 14:53 | 25.05439 | 51.71266 | 2937 ft | 230 kts | 347° |
| 2026-05-04 14:53 | 25.06971 | 51.70792 | 2887 ft | 225 kts | 343° |
| 2026-05-04 14:53 | 25.08390 | 51.70234 | 2858 ft | 213 kts | 340° |
| 2026-05-04 14:53 | 25.09728 | 51.69653 | 2882 ft | 195 kts | 340° |
| 2026-05-04 14:54 | 25.10941 | 51.69119 | 2861 ft | 180 kts | 340° |
| 2026-05-04 14:54 | 25.12141 | 51.68590 | 2647 ft | 187 kts | 339° |
| 2026-05-04 14:54 | 25.13333 | 51.68064 | 2408 ft | 181 kts | 340° |
| 2026-05-04 14:54 | 25.14479 | 51.67558 | 2189 ft | 174 kts | 340° |
| 2026-05-04 14:55 | 25.15574 | 51.67075 | 1976 ft | 168 kts | 340° |
| 2026-05-04 14:55 | 25.16646 | 51.66604 | 1781 ft | 162 kts | 339° |
| 2026-05-04 14:55 | 25.17676 | 51.66148 | 1580 ft | 155 kts | 338° |
| 2026-05-04 14:55 | 25.18636 | 51.65725 | 1382 ft | 143 kts | 337° |
| 2026-05-04 14:56 | 25.19549 | 51.65321 | 1234 ft | 143 kts | 337° |
| 2026-05-04 14:56 | 25.20162 | 51.65051 | 1102 ft | 143 kts | 337° |
| 2026-05-04 14:56 | 25.21078 | 51.64646 | 934 ft | 140 kts | 338° |
| 2026-05-04 14:56 | 25.21982 | 51.64247 | 739 ft | 144 kts | 339° |
| 2026-05-04 14:57 | 25.22905 | 51.63839 | 566 ft | 140 kts | 339° |
| 2026-05-04 14:57 | 25.23815 | 51.63437 | 422 ft | 144 kts | 339° |
| 2026-05-04 14:57 | 25.24757 | 51.63021 | 268 ft | 146 kts | 340° |
| 2026-05-04 14:57 | 25.25694 | 51.62612 | 57 ft | 144 kts | 340° |
| 2026-05-04 14:58 | 25.26557 | 51.62235 | 31 ft | 114 kts | 338° |
| 2026-05-04 14:58 | 25.27115 | 51.61985 | 30 ft | 54 kts | 339° |
| 2026-05-04 14:58 | 25.27374 | 51.61836 | 31 ft | 30 kts | 318° |
| 2026-05-04 14:58 | 25.27466 | 51.61712 | 33 ft | 12 kts | 306° |
| 2026-05-04 14:59 | 25.27518 | 51.61633 | 33 ft | 13 kts | 304° |
| 2026-05-04 14:59 | 25.27536 | 51.61545 | 34 ft | 12 kts | 248° |
| 2026-05-04 14:59 | 25.27385 | 51.61556 | 34 ft | 12 kts | 158° |
| 2026-05-04 15:00 | 25.27306 | 51.61592 | 34 ft | 12 kts | 158° |
| 2026-05-04 15:00 | 25.27228 | 51.61628 | 34 ft | 12 kts | 158° |
| 2026-05-04 15:00 | 25.27150 | 51.61662 | 34 ft | 12 kts | 160° |
| 2026-05-04 15:01 | 25.27035 | 51.61555 | 35 ft | 12 kts | 248° |
| 2026-05-04 15:01 | 25.27000 | 51.61469 | 35 ft | 12 kts | 236° |
| 2026-05-04 15:01 | 25.26928 | 51.61419 | 35 ft | 12 kts | 205° |
| 2026-05-04 15:01 | 25.26849 | 51.61380 | 35 ft | 12 kts | 203° |
| 2026-05-04 15:02 | 25.26770 | 51.61343 | 35 ft | 12 kts | 203° |
| 2026-05-04 15:02 | 25.26688 | 51.61316 | 35 ft | 12 kts | 184° |
| 2026-05-04 15:02 | 25.26609 | 51.61355 | 35 ft | 13 kts | 152° |
| 2026-05-04 15:02 | 25.26530 | 51.61392 | 35 ft | 13 kts | 158° |
| 2026-05-04 15:03 | 25.26448 | 51.61428 | 35 ft | 13 kts | 158° |
| 2026-05-04 15:03 | 25.26397 | 51.61496 | 35 ft | 9 kts | 89° |
| 2026-05-04 15:03 | 25.26393 | 51.61542 | 35 ft | 6 kts | 134° |
| 2026-05-04 15:03 | 25.26369 | 51.61563 | 35 ft | 10 kts | 146° |
| 2026-05-04 15:04 | 25.26331 | 51.61583 | 35 ft | 4 kts | 158° |
| 2026-05-04 15:04 | 25.26326 | 51.61585 | 35 ft | 0 kts | 158° |